Terminal Aerodrome Forecast
Issued by NWS

Home | Current Version | Previous Version | Graphics & Text | Print | Product List | Glossary On
Versions: 1 2 3 4 5 6 7 8 9 10 11 12 13 14 15 16
000
FTUS43 KMPX 212205 AAA
TAFRWF
TAF AMD
KRWF 212205Z 2122/2218 29011G18KT P6SM VCSH SCT020 OVC040
     FM212300 28011KT P6SM OVC060
     FM220300 28009KT P6SM SCT200=

USA.gov is the U.S. government's official web portal to all federal, state and local government web resources and services.